Time;durP1;ratioP1;P1;durP2;ratioP2;P2;SDS_P1;SDS_P2;PMS_P1;PMS_P2;Temp;Humidity;BMP_temperature;BMP_pressure;BME280_temperature;BME280_humidity;BME280_pressure;Samples;Min_cycle;Max_cycle;Signal;HPM_P1;HPM_P2
2022/12/12 00:01:36;;;;;;;9.52;4.30;;;1.90;95.50;;;;;;6256330;22;20031;-86
2022/12/12 00:04:04;;;;;;;8.63;4.07;;;2.00;95.50;;;;;;6280263;22;20038;-86
2022/12/12 00:06:31;;;;;;;8.65;3.72;;;1.90;95.50;;;;;;6306071;22;20085;-86
2022/12/12 00:09:02;;;;;;;7.50;3.30;;;1.90;95.50;;;;;;6280614;22;20027;-86
2022/12/12 00:11:30;;;;;;;7.47;4.05;;;1.90;95.50;;;;;;6255539;22;20022;-86
2022/12/12 00:13:57;;;;;;;7.90;3.50;;;1.90;95.50;;;;;;6280228;22;20015;-86
2022/12/12 00:16:27;;;;;;;7.53;3.28;;;1.90;95.50;;;;;;6256426;22;20076;-86
2022/12/12 00:19:06;;;;;;;8.13;3.33;;;1.90;95.50;;;;;;6256831;22;20073;-86
2022/12/12 00:21:34;;;;;;;7.88;3.78;;;1.90;95.50;;;;;;6282016;22;20023;-86
2022/12/12 00:24:01;;;;;;;6.82;3.08;;;1.90;95.50;;;;;;6254928;22;20050;-86
2022/12/12 00:26:31;;;;;;;6.60;3.25;;;1.90;95.50;;;;;;6305564;22;20073;-86
2022/12/12 00:29:00;;;;;;;7.28;3.50;;;1.90;95.80;;;;;;6280405;22;20023;-86
2022/12/12 00:31:27;;;;;;;10.38;4.55;;;1.90;95.50;;;;;;6280061;22;20022;-86
2022/12/12 00:33:57;;;;;;;8.85;4.03;;;1.90;95.40;;;;;;6305380;22;20061;-85
2022/12/12 00:36:27;;;;;;;10.57;4.97;;;1.90;95.40;;;;;;6280109;22;20110;-86
2022/12/12 00:38:54;;;;;;;10.50;4.63;;;1.90;95.50;;;;;;6280119;22;20023;-86
2022/12/12 00:41:25;;;;;;;10.07;4.00;;;1.90;95.40;;;;;;6280245;22;20030;-86
2022/12/12 00:43:56;;;;;;;10.77;4.65;;;1.90;95.50;;;;;;6306218;22;20019;-86
2022/12/12 00:46:24;;;;;;;10.75;4.38;;;1.90;95.40;;;;;;6254890;22;20019;-84
2022/12/12 00:49:00;;;;;;;10.10;5.00;;;1.90;95.40;;;;;;6305252;22;20011;-84
2022/12/12 00:51:28;;;;;;;8.18;4.10;;;1.90;95.40;;;;;;6280225;22;20097;-84
2022/12/12 00:53:57;;;;;;;9.43;4.18;;;1.80;95.40;;;;;;6305265;22;20019;-84
2022/12/12 00:56:31;;;;;;;7.67;3.87;;;1.90;95.40;;;;;;6305872;22;20441;-84
2022/12/12 00:59:00;;;;;;;7.17;3.23;;;1.90;95.40;;;;;;6282511;22;20041;-84
2022/12/12 01:01:30;;;;;;;9.37;4.40;;;1.90;95.40;;;;;;6307450;22;20019;-84
2022/12/12 01:03:59;;;;;;;9.20;4.25;;;1.90;95.40;;;;;;6281383;22;20510;-84
2022/12/12 01:06:27;;;;;;;9.38;4.30;;;1.90;95.30;;;;;;6281747;22;20050;-84
2022/12/12 01:08:54;;;;;;;9.00;3.83;;;1.90;95.60;;;;;;6281872;22;20118;-84
2022/12/12 01:11:23;;;;;;;8.88;4.25;;;1.90;95.40;;;;;;6281830;22;20357;-84
2022/12/12 01:13:53;;;;;;;7.85;3.33;;;1.90;95.40;;;;;;6281720;22;20023;-84
2022/12/12 01:16:21;;;;;;;9.27;4.17;;;1.90;95.40;;;;;;6307400;22;20019;-84
2022/12/12 01:18:48;;;;;;;7.63;3.60;;;1.90;95.40;;;;;;6281446;22;20072;-84
2022/12/12 01:21:18;;;;;;;9.60;3.90;;;1.90;95.40;;;;;;6307172;22;20023;-84
2022/12/12 01:23:47;;;;;;;7.07;2.97;;;1.90;95.40;;;;;;6281781;22;20488;-84
2022/12/12 01:26:17;;;;;;;9.60;4.97;;;1.90;95.40;;;;;;6306973;22;20446;-84
2022/12/12 01:28:45;;;;;;;8.77;4.13;;;1.90;95.30;;;;;;6281256;22;20023;-84
2022/12/12 01:31:13;;;;;;;9.15;4.00;;;1.90;95.30;;;;;;6255981;22;20077;-84
2022/12/12 01:33:44;;;;;;;7.53;3.85;;;1.90;95.30;;;;;;6306840;22;20030;-84
2022/12/12 01:36:17;;;;;;;9.75;3.92;;;1.90;95.30;;;;;;6307009;22;20110;-84
2022/12/12 01:38:55;;;;;;;9.98;4.55;;;1.90;95.30;;;;;;6306999;22;20090;-84
2022/12/12 01:41:23;;;;;;;8.57;3.97;;;1.90;95.30;;;;;;6306912;22;20045;-84
2022/12/12 01:43:53;;;;;;;8.32;3.97;;;1.90;95.30;;;;;;6306736;22;20487;-85
2022/12/12 01:46:33;;;;;;;9.43;4.05;;;1.90;95.30;;;;;;6306635;22;20042;-84
2022/12/12 01:49:16;;;;;;;8.57;3.83;;;1.90;95.30;;;;;;6306763;22;20019;-84
2022/12/12 01:51:49;;;;;;;10.18;3.78;;;1.90;95.30;;;;;;6306910;22;20026;-84
2022/12/12 01:54:23;;;;;;;9.23;3.40;;;1.80;95.30;;;;;;6282364;22;20032;-84
2022/12/12 01:56:53;;;;;;;10.15;3.95;;;1.80;95.30;;;;;;6306861;22;20019;-84
2022/12/12 01:59:23;;;;;;;10.43;4.88;;;1.80;95.30;;;;;;6281660;22;20051;-84
2022/12/12 02:01:51;;;;;;;6.93;2.85;;;1.80;95.30;;;;;;6307233;22;20069;-84
2022/12/12 02:04:22;;;;;;;8.57;4.07;;;1.70;95.40;;;;;;6306652;22;20054;-84
2022/12/12 02:06:50;;;;;;;6.68;3.05;;;1.70;95.40;;;;;;6281288;22;20026;-84
2022/12/12 02:09:22;;;;;;;7.63;3.30;;;1.60;95.50;;;;;;6306775;22;20019;-84
2022/12/12 02:11:52;;;;;;;8.10;4.03;;;1.60;95.50;;;;;;6306800;22;20015;-84
2022/12/12 02:14:32;;;;;;;8.60;3.78;;;1.60;95.50;;;;;;6306950;22;20076;-84
2022/12/12 02:17:08;;;;;;;8.13;3.57;;;1.50;95.50;;;;;;6280914;22;20023;-84
2022/12/12 02:20:07;;;;;;;8.20;3.25;;;1.50;95.60;;;;;;6281110;22;20046;-83
2022/12/12 02:23:08;;;;;;;7.90;3.20;;;1.60;95.80;;;;;;6306729;22;20019;-84
2022/12/12 02:26:06;;;;;;;8.32;4.03;;;1.60;95.50;;;;;;6306369;22;20073;-83
2022/12/12 02:28:38;;;;;;;7.63;3.88;;;1.60;95.40;;;;;;6306370;22;20023;-84
2022/12/12 02:31:11;;;;;;;8.52;3.08;;;1.60;95.40;;;;;;6306321;22;20072;-84
2022/12/12 02:33:50;;;;;;;8.63;3.20;;;1.60;95.50;;;;;;6280773;22;20098;-84
2022/12/12 02:36:38;;;;;;;7.47;2.70;;;1.60;95.40;;;;;;6306433;22;20345;-84
2022/12/12 02:39:22;;;;;;;7.90;3.42;;;1.60;95.40;;;;;;6280592;22;20496;-83
2022/12/12 02:42:13;;;;;;;7.93;3.33;;;1.60;95.40;;;;;;6306224;22;20057;-84
2022/12/12 02:44:53;;;;;;;7.68;3.60;;;1.60;95.40;;;;;;6305936;22;20035;-83
2022/12/12 02:47:27;;;;;;;8.05;3.55;;;1.50;95.40;;;;;;6306327;22;20019;-83
2022/12/12 02:50:01;;;;;;;7.38;3.30;;;1.50;95.40;;;;;;6306401;22;20456;-84
2022/12/12 02:52:29;;;;;;;5.50;2.47;;;1.50;95.50;;;;;;6306256;22;20022;-83
2022/12/12 02:54:56;;;;;;;6.63;2.67;;;1.50;95.40;;;;;;6306011;22;20090;-83
2022/12/12 02:57:25;;;;;;;9.90;4.20;;;1.60;95.50;;;;;;6280763;22;20015;-84
2022/12/12 03:00:07;;;;;;;7.88;3.28;;;1.60;95.50;;;;;;6280990;22;20089;-83
2022/12/12 03:02:45;;;;;;;8.75;3.15;;;1.60;95.50;;;;;;6306219;22;20027;-83
2022/12/12 03:08:59;;;;;;;8.03;3.43;;;1.60;95.40;;;;;;6305776;22;20019;-83
2022/12/12 03:11:48;;;;;;;9.00;3.83;;;1.60;95.40;;;;;;6280402;22;20073;-83
2022/12/12 03:14:29;;;;;;;6.83;2.87;;;1.60;95.40;;;;;;6281211;22;20034;-84
2022/12/12 03:17:27;;;;;;;6.93;3.43;;;1.60;95.30;;;;;;6306139;22;20055;-83
2022/12/12 03:20:16;;;;;;;8.47;3.33;;;1.60;95.30;;;;;;6306129;22;20023;-83
2022/12/12 03:22:55;;;;;;;7.27;3.27;;;1.60;95.30;;;;;;6305919;22;20110;-83
2022/12/12 03:25:35;;;;;;;8.73;3.35;;;1.50;95.30;;;;;;6305667;22;20015;-83
2022/12/12 03:28:12;;;;;;;5.15;2.13;;;1.40;95.30;;;;;;6305959;22;20019;-83
2022/12/12 03:30:45;;;;;;;6.93;2.50;;;1.40;95.40;;;;;;6306129;22;20011;-84
2022/12/12 03:33:25;;;;;;;6.13;2.47;;;1.30;95.50;;;;;;6309118;22;20511;-84
2022/12/12 03:36:13;;;;;;;4.80;1.95;;;1.20;95.50;;;;;;6311215;22;20456;-84
2022/12/12 03:38:55;;;;;;;6.67;2.17;;;1.10;95.50;;;;;;6285269;22;20513;-83
2022/12/12 03:41:33;;;;;;;5.32;2.03;;;1.10;95.60;;;;;;6310817;22;20022;-84
2022/12/12 03:44:09;;;;;;;6.35;2.28;;;1.00;95.60;;;;;;6310777;22;20018;-83
2022/12/12 03:46:47;;;;;;;5.78;2.47;;;0.90;95.60;;;;;;6310813;22;20076;-83
2022/12/12 03:49:24;;;;;;;6.63;2.75;;;0.90;95.70;;;;;;6311042;22;20098;-83
2022/12/12 03:52:04;;;;;;;4.93;2.15;;;0.70;95.70;;;;;;6311131;22;20440;-83
2022/12/12 03:54:41;;;;;;;6.00;2.67;;;0.70;95.80;;;;;;6310621;22;20019;-84
2022/12/12 03:57:23;;;;;;;5.93;2.42;;;0.70;95.90;;;;;;6338806;22;20022;-83
2022/12/12 04:00:17;;;;;;;6.57;2.63;;;0.60;95.90;;;;;;6285339;22;20023;-83
2022/12/12 04:02:54;;;;;;;3.78;1.58;;;0.60;95.90;;;;;;6305491;22;20018;-83
2022/12/12 04:05:31;;;;;;;4.97;1.80;;;0.50;96.00;;;;;;6310802;22;20318;-83
2022/12/12 04:08:13;;;;;;;5.13;2.20;;;0.50;96.00;;;;;;6311276;22;20377;-83
2022/12/12 04:14:08;;;;;;;7.70;2.78;;;0.40;96.00;;;;;;6310682;22;20101;-83
2022/12/12 04:16:40;;;;;;;5.50;2.10;;;0.30;96.00;;;;;;6152972;22;20044;-83
2022/12/12 04:23:13;;;;;;;5.90;2.00;;;0.20;96.10;;;;;;6285262;22;20019;-84
2022/12/12 04:25:03;;;;;;;5.83;2.13;;;0.10;96.20;;;;;;6290638;22;20014;-86
2022/12/12 04:27:45;;;;;;;5.47;2.20;;;0.10;96.20;;;;;;6286199;22;20023;-96
2022/12/12 04:30:14;;;;;;;6.03;1.95;;;0.10;96.20;;;;;;6285484;22;20344;-86
2022/12/12 04:32:56;;;;;;;5.93;2.05;;;0.10;96.20;;;;;;6287442;22;20502;-86
2022/12/12 04:35:34;;;;;;;5.37;2.13;;;0.00;96.20;;;;;;6283009;22;20102;-85
2022/12/12 04:38:09;;;;;;;6.17;2.23;;;-0.10;96.20;;;;;;6308428;22;20046;-86
2022/12/12 04:40:42;;;;;;;7.00;2.83;;;-0.10;96.20;;;;;;6308531;22;20532;-86
2022/12/12 04:43:23;;;;;;;6.77;2.63;;;-0.10;96.20;;;;;;6308101;22;20073;-85
2022/12/12 04:46:04;;;;;;;5.23;1.87;;;-0.10;96.30;;;;;;6308006;22;20026;-85
2022/12/12 04:48:50;;;;;;;5.80;2.30;;;-0.20;96.30;;;;;;6308423;22;20019;-86
2022/12/12 04:51:26;;;;;;;5.27;1.70;;;-0.20;96.30;;;;;;6308532;22;20019;-86
2022/12/12 04:54:09;;;;;;;5.73;1.87;;;-0.20;96.30;;;;;;6308158;22;20022;-86
2022/12/12 04:56:38;;;;;;;6.50;2.33;;;-0.20;96.30;;;;;;6307995;22;20019;-86
2022/12/12 04:59:06;;;;;;;6.20;2.77;;;-0.30;96.30;;;;;;6282495;22;20393;-86
2022/12/12 05:01:59;;;;;;;6.20;2.47;;;-0.30;96.30;;;;;;6282621;22;20043;-86
2022/12/12 05:04:46;;;;;;;5.70;2.10;;;-0.30;96.30;;;;;;6282678;22;20046;-86
2022/12/12 05:07:19;;;;;;;6.47;2.60;;;-0.30;96.40;;;;;;6307659;22;20434;-86
2022/12/12 05:09:49;;;;;;;5.63;1.67;;;-0.40;96.40;;;;;;6308043;22;20021;-84
2022/12/12 05:12:16;;;;;;;5.20;2.20;;;-0.40;96.40;;;;;;6256525;22;20016;-83
2022/12/12 05:14:43;;;;;;;4.90;1.90;;;-0.40;96.40;;;;;;6256443;22;20023;-83
2022/12/12 05:17:15;;;;;;;6.78;2.20;;;-0.40;96.40;;;;;;6256201;22;20069;-83
2022/12/12 05:19:46;;;;;;;4.43;1.40;;;-0.40;96.40;;;;;;6282300;22;20030;-83
2022/12/12 05:22:13;;;;;;;5.20;1.93;;;-0.50;96.50;;;;;;6281506;22;20041;-84
2022/12/12 05:24:40;;;;;;;4.10;1.50;;;-0.50;96.50;;;;;;6230931;22;20111;-84
2022/12/12 05:27:10;;;;;;;4.77;1.63;;;-0.50;96.50;;;;;;6231491;22;20026;-83
2022/12/12 05:29:37;;;;;;;5.47;2.13;;;-0.50;96.50;;;;;;6281387;22;20097;-83
2022/12/12 05:32:04;;;;;;;5.43;2.20;;;-0.50;96.50;;;;;;6307389;22;20109;-84
2022/12/12 05:34:34;;;;;;;4.83;1.60;;;-0.50;96.50;;;;;;6231093;22;20115;-83
2022/12/12 05:37:02;;;;;;;5.27;2.07;;;-0.50;96.50;;;;;;6281604;22;20019;-84
2022/12/12 05:39:29;;;;;;;4.57;1.63;;;-0.50;96.50;;;;;;6256355;22;20077;-83
2022/12/12 05:41:56;;;;;;;6.80;2.37;;;-0.60;96.50;;;;;;6281748;22;20019;-84
2022/12/12 05:44:23;;;;;;;6.43;1.93;;;-0.60;96.50;;;;;;6256206;22;20019;-84
2022/12/12 05:46:53;;;;;;;6.80;2.50;;;-0.60;96.60;;;;;;6307393;22;20023;-84
2022/12/12 05:49:21;;;;;;;5.53;2.30;;;-0.60;96.60;;;;;;6282160;22;20017;-84
2022/12/12 05:51:49;;;;;;;4.93;1.67;;;-0.60;96.60;;;;;;6256575;22;20043;-84
2022/12/12 05:54:16;;;;;;;5.60;2.17;;;-0.60;96.60;;;;;;6255760;22;20356;-84
2022/12/12 05:56:43;;;;;;;6.63;2.43;;;-0.70;96.60;;;;;;6255997;22;20023;-84
2022/12/12 05:59:12;;;;;;;5.73;2.20;;;-0.70;96.60;;;;;;6281034;22;20019;-84
2022/12/12 06:01:39;;;;;;;6.30;2.37;;;-0.70;96.60;;;;;;6281991;22;20169;-84
2022/12/12 06:04:09;;;;;;;4.70;2.03;;;-0.70;96.60;;;;;;6281514;22;20046;-84
2022/12/12 06:06:36;;;;;;;5.57;2.17;;;-0.80;96.60;;;;;;6255816;22;20019;-84
2022/12/12 06:09:03;;;;;;;6.37;2.30;;;-0.80;96.60;;;;;;6281023;22;20050;-83
2022/12/12 06:11:33;;;;;;;6.83;1.97;;;-0.80;96.60;;;;;;6255398;22;20019;-83
2022/12/12 06:14:00;;;;;;;6.33;1.80;;;-0.80;96.70;;;;;;6306904;22;20022;-89
2022/12/12 06:16:27;;;;;;;4.73;1.93;;;-0.80;96.70;;;;;;6307886;22;20020;-88
2022/12/12 06:18:56;;;;;;;5.83;2.00;;;-0.90;96.70;;;;;;6232283;22;20016;-84
2022/12/12 06:21:24;;;;;;;4.80;2.07;;;-0.90;96.70;;;;;;6255592;22;20019;-84
2022/12/12 06:23:54;;;;;;;6.23;2.53;;;-0.90;96.70;;;;;;6281800;22;20023;-85
2022/12/12 06:26:22;;;;;;;6.77;2.67;;;-0.90;96.70;;;;;;6256385;22;20025;-85
2022/12/12 06:28:55;;;;;;;7.40;2.90;;;-0.90;96.70;;;;;;6283162;22;20077;-88
2022/12/12 06:31:24;;;;;;;6.73;3.43;;;-1.00;96.70;;;;;;6282403;22;20015;-88
2022/12/12 06:33:54;;;;;;;5.53;2.20;;;-1.00;96.70;;;;;;6307943;22;20092;-88
2022/12/12 06:36:23;;;;;;;7.43;3.00;;;-1.00;96.70;;;;;;6282337;22;20023;-88
2022/12/12 06:38:55;;;;;;;8.43;3.83;;;-1.00;96.70;;;;;;6281901;22;20015;-85
2022/12/12 06:41:23;;;;;;;7.63;2.80;;;-1.00;96.70;;;;;;6306746;22;20027;-85
2022/12/12 06:43:50;;;;;;;7.27;2.30;;;-1.00;96.70;;;;;;6306513;22;20081;-85
2022/12/12 06:46:24;;;;;;;5.93;2.13;;;-1.10;96.70;;;;;;6282040;22;20015;-85
2022/12/12 06:48:54;;;;;;;6.67;2.67;;;-1.00;96.70;;;;;;6306460;22;20019;-85
2022/12/12 06:51:31;;;;;;;7.00;2.23;;;-1.10;96.70;;;;;;6307021;22;20015;-84
2022/12/12 06:54:01;;;;;;;6.27;2.27;;;-1.10;96.80;;;;;;6306450;22;20020;-85
2022/12/12 06:56:28;;;;;;;6.77;2.43;;;-1.10;96.80;;;;;;6280842;22;20414;-85
2022/12/12 06:58:58;;;;;;;5.43;1.87;;;-1.20;96.80;;;;;;6281213;22;20019;-85
2022/12/12 07:01:25;;;;;;;6.30;2.53;;;-1.20;96.80;;;;;;6255354;22;20349;-85
2022/12/12 07:03:56;;;;;;;5.23;2.17;;;-1.20;96.80;;;;;;6255758;22;20062;-84
2022/12/12 07:06:23;;;;;;;6.47;2.77;;;-1.20;96.80;;;;;;6255672;22;20019;-85
2022/12/12 07:08:51;;;;;;;6.70;2.50;;;-1.20;96.80;;;;;;6280808;22;20470;-85
2022/12/12 07:11:23;;;;;;;7.13;2.50;;;-1.20;97.10;;;;;;6306255;22;20019;-84
2022/12/12 07:13:50;;;;;;;6.07;2.27;;;-1.30;96.80;;;;;;6280712;22;20460;-84
2022/12/12 07:16:21;;;;;;;6.57;2.47;;;-1.20;96.90;;;;;;6305905;22;20021;-84
2022/12/12 07:18:48;;;;;;;5.00;2.00;;;-1.20;96.90;;;;;;6306144;22;20015;-84
2022/12/12 07:21:18;;;;;;;5.67;2.00;;;-1.20;96.90;;;;;;6306159;22;20026;-85
2022/12/12 07:23:45;;;;;;;5.10;1.97;;;-1.20;96.90;;;;;;6306327;22;20090;-85
2022/12/12 07:26:15;;;;;;;5.53;2.20;;;-1.20;96.90;;;;;;6280353;22;20049;-85
2022/12/12 07:28:42;;;;;;;5.87;2.53;;;-1.20;96.90;;;;;;6280610;22;20107;-85
2022/12/12 07:31:15;;;;;;;8.53;3.27;;;-1.30;96.80;;;;;;6255366;22;20047;-85
2022/12/12 07:33:42;;;;;;;;;;;-1.30;96.80;;;;;;6306599;22;20368;-85
2022/12/12 07:36:15;;;;;;;8.10;2.80;;;-1.30;96.90;;;;;;6281145;22;20347;-85
2022/12/12 07:38:42;;;;;;;6.07;2.73;;;-1.40;96.90;;;;;;6306369;22;20069;-84
2022/12/12 07:41:15;;;;;;;6.47;2.40;;;-1.30;96.90;;;;;;6280944;22;20020;-85
2022/12/12 07:43:47;;;;;;;4.67;2.00;;;-1.30;96.90;;;;;;6306128;22;20047;-84
2022/12/12 07:46:16;;;;;;;6.13;2.07;;;-1.30;96.90;;;;;;6306104;22;20011;-84
2022/12/12 07:48:44;;;;;;;6.00;2.43;;;-1.30;96.90;;;;;;6306560;22;20049;-85
2022/12/12 07:51:14;;;;;;;5.97;2.33;;;-1.30;96.90;;;;;;6306205;22;20405;-84
2022/12/12 07:53:42;;;;;;;7.10;2.73;;;-1.30;96.90;;;;;;6255324;22;20049;-85
2022/12/12 07:56:11;;;;;;;9.47;3.37;;;-1.40;96.90;;;;;;6280624;22;20046;-84
2022/12/12 07:58:38;;;;;;;6.83;2.67;;;-1.30;96.90;;;;;;6280269;22;20092;-83
2022/12/12 08:01:12;;;;;;;7.63;2.87;;;-1.30;96.90;;;;;;6257286;22;20023;-84
2022/12/12 08:03:42;;;;;;;9.33;2.97;;;-1.30;96.90;;;;;;6305962;22;20020;-85
2022/12/12 08:06:13;;;;;;;6.67;3.60;;;-1.30;96.80;;;;;;6280912;22;20015;-84
2022/12/12 08:08:40;;;;;;;9.43;3.37;;;-1.30;96.80;;;;;;6230808;22;20382;-85
2022/12/12 08:11:09;;;;;;;9.87;4.13;;;-1.30;96.80;;;;;;6255279;22;20388;-84
2022/12/12 08:13:37;;;;;;;8.50;3.43;;;-1.20;96.80;;;;;;6305728;22;20022;-84
2022/12/12 08:16:06;;;;;;;8.83;3.27;;;-1.30;96.80;;;;;;6280410;22;20016;-84
2022/12/12 08:18:35;;;;;;;9.13;3.40;;;-1.30;96.80;;;;;;6306279;22;20034;-83
2022/12/12 08:21:13;;;;;;;6.70;2.73;;;-1.30;96.80;;;;;;6280664;22;20046;-83
2022/12/12 08:23:43;;;;;;;8.93;3.73;;;-1.30;96.80;;;;;;6281583;22;20029;-84
2022/12/12 08:26:13;;;;;;;8.20;3.47;;;-1.30;96.80;;;;;;6255119;22;20012;-85
2022/12/12 08:28:44;;;;;;;7.03;2.93;;;-1.20;96.80;;;;;;6306187;22;20490;-85
2022/12/12 08:31:18;;;;;;;6.77;2.80;;;-1.20;96.80;;;;;;6306067;22;20019;-85
2022/12/12 08:33:50;;;;;;;8.90;3.60;;;-1.20;96.80;;;;;;6281075;22;20026;-84
2022/12/12 08:36:20;;;;;;;7.80;3.30;;;-1.20;96.80;;;;;;6280453;22;20062;-85
2022/12/12 08:38:48;;;;;;;7.23;2.97;;;-1.20;96.80;;;;;;6305825;22;20019;-85
2022/12/12 08:41:15;;;;;;;10.30;3.77;;;-1.20;96.80;;;;;;6280537;22;20049;-84
2022/12/12 08:43:46;;;;;;;6.57;2.63;;;-1.20;96.80;;;;;;6305713;22;20029;-85
2022/12/12 08:46:15;;;;;;;7.87;3.17;;;-1.10;96.80;;;;;;6279984;22;20022;-85
2022/12/12 08:48:45;;;;;;;9.03;3.10;;;-1.10;96.80;;;;;;6280274;22;20065;-84
2022/12/12 08:51:17;;;;;;;9.13;2.83;;;-1.10;96.80;;;;;;6281401;22;20392;-85
2022/12/12 08:53:52;;;;;;;8.50;3.10;;;-1.10;96.80;;;;;;6280414;22;20043;-84
2022/12/12 08:56:22;;;;;;;7.13;2.80;;;-1.10;96.80;;;;;;6305805;22;20027;-84
2022/12/12 08:58:55;;;;;;;7.18;2.95;;;-1.10;96.80;;;;;;6306345;22;20026;-84
2022/12/12 09:01:24;;;;;;;6.97;2.63;;;-1.10;96.80;;;;;;6255651;22;20030;-84
2022/12/12 09:03:54;;;;;;;6.27;2.83;;;-1.10;96.80;;;;;;6280236;22;20020;-84
2022/12/12 09:06:21;;;;;;;7.00;2.93;;;-1.10;96.70;;;;;;6305730;22;20052;-84
2022/12/12 09:08:49;;;;;;;7.10;2.37;;;-1.00;96.70;;;;;;6280157;22;20041;-84
2022/12/12 09:11:17;;;;;;;6.53;2.90;;;-1.00;96.70;;;;;;6280335;22;20412;-84
2022/12/12 09:13:47;;;;;;;8.57;3.17;;;-1.00;96.70;;;;;;6305648;22;20616;-84
2022/12/12 09:16:14;;;;;;;8.07;3.57;;;-1.00;97.00;;;;;;6254935;22;20042;-84
2022/12/12 09:18:42;;;;;;;9.57;4.00;;;-1.00;96.70;;;;;;6230979;22;20073;-84
2022/12/12 09:21:15;;;;;;;10.27;4.57;;;-0.90;96.70;;;;;;6283728;22;20369;-84
2022/12/12 09:23:43;;;;;;;11.40;5.20;;;-1.00;96.60;;;;;;6307674;22;20027;-84
2022/12/12 09:26:10;;;;;;;12.43;4.97;;;-0.90;96.60;;;;;;6307503;22;20022;-89
2022/12/12 09:28:37;;;;;;;12.67;5.57;;;-0.90;96.60;;;;;;6281946;22;20050;-84
2022/12/12 09:31:10;;;;;;;11.73;5.40;;;-0.90;96.60;;;;;;6257117;22;20065;-84
2022/12/12 09:33:37;;;;;;;;;;;-0.90;96.50;;;;;;6313063;22;20075;-84
2022/12/12 09:36:06;;;;;;;12.30;4.67;;;-0.90;96.50;;;;;;6312600;22;20253;-84
2022/12/12 09:38:34;;;;;;;15.57;5.37;;;-0.90;96.50;;;;;;6286970;22;20395;-84
2022/12/12 09:41:10;;;;;;;11.80;5.17;;;-0.90;96.50;;;;;;6287147;22;20027;-84
2022/12/12 09:44:04;;;;;;;9.63;4.37;;;-0.80;96.50;;;;;;6286903;22;20023;-84
2022/12/12 09:46:54;;;;;;;10.33;4.37;;;-0.80;96.50;;;;;;6286414;22;20014;-84
2022/12/12 09:49:43;;;;;;;10.97;4.60;;;-0.80;96.50;;;;;;6286710;22;20344;-84
2022/12/12 09:52:16;;;;;;;9.47;4.03;;;-0.80;96.50;;;;;;6312301;22;20015;-84
2022/12/12 09:54:46;;;;;;;10.43;4.57;;;-0.80;96.40;;;;;;6287321;22;20412;-83
2022/12/12 09:57:25;;;;;;;10.47;3.57;;;-0.80;96.40;;;;;;6261950;22;20018;-84
2022/12/12 09:59:55;;;;;;;12.90;4.83;;;-0.80;96.40;;;;;;6312441;22;20437;-84
2022/12/12 10:02:32;;;;;;;13.03;6.00;;;-0.70;96.40;;;;;;6312335;22;20349;-85
2022/12/12 10:05:34;;;;;;;15.20;7.27;;;-0.70;96.40;;;;;;6312143;22;20345;-83
2022/12/12 10:08:06;;;;;;;12.03;5.10;;;-0.70;96.30;;;;;;6286414;22;20015;-83
2022/12/12 10:10:39;;;;;;;10.80;4.67;;;-0.70;96.30;;;;;;6311733;22;20039;-83
2022/12/12 10:13:39;;;;;;;9.30;4.10;;;-0.70;96.30;;;;;;6286802;22;20068;-83
2022/12/12 10:16:13;;;;;;;12.97;4.87;;;-0.70;96.40;;;;;;6280311;22;20022;-83
2022/12/12 10:18:49;;;;;;;11.80;5.07;;;-0.70;96.40;;;;;;6312078;22;20077;-83
2022/12/12 10:21:26;;;;;;;12.20;5.87;;;-0.70;96.30;;;;;;6312044;22;20101;-83
2022/12/12 10:23:58;;;;;;;12.83;5.30;;;-0.60;96.30;;;;;;6286322;22;20101;-83
2022/12/12 10:26:30;;;;;;;11.63;4.82;;;-0.60;96.30;;;;;;6312034;22;20379;-83
2022/12/12 10:29:12;;;;;;;10.68;4.10;;;-0.60;96.30;;;;;;6285853;22;20019;-83
2022/12/12 10:32:12;;;;;;;13.33;4.30;;;-0.60;96.30;;;;;;6311786;22;20451;-83
2022/12/12 10:34:48;;;;;;;9.47;3.60;;;-0.60;96.30;;;;;;6306301;22;20106;-83
2022/12/12 10:37:28;;;;;;;10.53;4.10;;;-0.60;96.30;;;;;;6306282;22;20055;-83
2022/12/12 10:40:12;;;;;;;11.27;3.90;;;-0.60;96.30;;;;;;6280883;22;20445;-83
2022/12/12 10:43:02;;;;;;;7.47;3.30;;;-0.50;96.30;;;;;;6306407;22;20019;-83
2022/12/12 10:46:10;;;;;;;6.53;2.67;;;-0.50;96.30;;;;;;6306268;22;20442;-83
2022/12/12 10:48:39;;;;;;;8.53;3.10;;;-0.50;96.30;;;;;;6306636;22;20019;-83
2022/12/12 10:51:11;;;;;;;8.13;3.13;;;-0.50;96.60;;;;;;6256458;22;20019;-83
2022/12/12 10:53:41;;;;;;;6.53;3.53;;;-0.50;96.30;;;;;;6306276;22;20098;-83
2022/12/12 10:56:24;;;;;;;6.30;2.57;;;-0.50;96.30;;;;;;6255800;22;20456;-82
2022/12/12 10:58:53;;;;;;;6.23;3.03;;;-0.50;96.30;;;;;;6306374;22;20019;-83
2022/12/12 11:01:26;;;;;;;6.63;2.70;;;-0.50;96.30;;;;;;6306587;22;20073;-83
2022/12/12 11:04:13;;;;;;;6.95;2.97;;;-0.40;96.30;;;;;;6284880;22;20441;-83
2022/12/12 11:07:25;;;;;;;7.40;2.57;;;-0.50;96.30;;;;;;6256478;22;20019;-90
2022/12/12 11:20:05;;;;;;;5.93;2.70;;;-0.40;96.20;;;;;;6306531;22;20004;-88
2022/12/12 11:23:02;;;;;;;7.10;2.10;;;-0.40;96.20;;;;;;6264746;22;20098;-89
2022/12/12 11:30:42;;;;;;;7.17;3.20;;;-0.40;96.10;;;;;;6276027;22;20043;-91
2022/12/12 11:33:21;;;;;;;7.53;3.40;;;-0.30;96.10;;;;;;6209721;22;20023;-87
2022/12/12 11:36:05;;;;;;;8.83;2.97;;;-0.40;96.00;;;;;;6256267;22;20488;-87
2022/12/12 11:39:32;;;;;;;6.57;2.37;;;-0.30;96.00;;;;;;6237014;22;20050;-87
2022/12/12 11:45:36;;;;;;;7.90;3.13;;;-0.30;96.10;;;;;;6242869;22;20262;-89
2022/12/12 11:48:34;;;;;;;9.73;3.73;;;-0.30;96.10;;;;;;6253345;22;20102;-90
2022/12/12 11:51:05;;;;;;;12.70;5.00;;;-0.20;96.00;;;;;;6276230;22;20073;-88
2022/12/12 11:53:44;;;;;;;12.50;5.30;;;-0.20;95.90;;;;;;6276100;22;20020;-89
2022/12/12 11:56:33;;;;;;;12.20;5.27;;;-0.10;95.90;;;;;;6275916;22;20020;-91
2022/12/12 11:59:55;;;;;;;10.37;4.30;;;-0.10;95.90;;;;;;6253785;22;20039;-92
2022/12/12 12:07:28;;;;;;;;;;;;;;;;;;;;;
2022/12/12 12:10:50;;;;;;;;;;;;;;;;;;;;;
2022/12/12 12:14:26;;;;;;;;;;;;;;;;;;;;;
2022/12/12 12:18:05;;;;;;;11.57;4.50;;;0.10;95.40;;;;;;6275725;22;20015;-88
2022/12/12 12:21:12;;;;;;;9.63;3.57;;;0.20;95.50;;;;;;6111785;23;20021;-87
2022/12/12 12:24:14;;;;;;;7.77;3.87;;;0.20;95.50;;;;;;6106692;23;20173;-87
2022/12/12 12:27:02;;;;;;;11.20;3.93;;;0.20;95.50;;;;;;6128332;23;20014;-85
2022/12/12 12:30:00;;;;;;;10.57;3.77;;;0.20;95.50;;;;;;6227393;22;20038;-87
2022/12/12 12:32:58;;;;;;;9.67;3.80;;;0.20;95.50;;;;;;6275436;22;20027;-87
2022/12/12 12:35:35;;;;;;;5.45;2.30;;;0.20;95.50;;;;;;6276183;22;20094;-87
2022/12/12 12:38:11;;;;;;;8.18;3.33;;;0.20;95.60;;;;;;6280671;22;20015;-88
2022/12/12 12:40:57;;;;;;;9.73;3.70;;;0.20;95.60;;;;;;6306224;22;20467;-88
2022/12/12 12:43:47;;;;;;;8.27;3.50;;;0.20;95.50;;;;;;6307289;22;20015;-88
2022/12/12 12:46:31;;;;;;;6.17;2.60;;;0.20;95.50;;;;;;6306208;22;20016;-86
2022/12/12 12:49:27;;;;;;;8.93;3.60;;;0.30;95.50;;;;;;6306112;22;20023;-85
2022/12/12 12:52:05;;;;;;;11.23;4.10;;;0.30;95.50;;;;;;6258760;22;20129;-85
2022/12/12 12:54:58;;;;;;;7.40;2.77;;;0.30;95.50;;;;;;6308121;22;20471;-87
2022/12/12 12:57:34;;;;;;;7.07;2.60;;;0.30;95.50;;;;;;6282452;22;20031;-86
2022/12/12 13:00:40;;;;;;;6.33;2.10;;;0.40;95.50;;;;;;6308797;22;20110;-85
2022/12/12 13:03:18;;;;;;;7.13;2.27;;;0.40;95.40;;;;;;6308716;22;20068;-86
2022/12/12 13:06:26;;;;;;;6.13;2.13;;;0.40;95.40;;;;;;6283103;22;20406;-89
2022/12/12 13:09:53;;;;;;;4.67;1.53;;;0.40;95.40;;;;;;6283473;22;20441;-87
2022/12/12 13:13:01;;;;;;;4.70;1.60;;;0.40;95.40;;;;;;6308383;22;20111;-86
2022/12/12 13:15:46;;;;;;;5.47;1.77;;;0.40;95.40;;;;;;6307867;22;20020;-87
2022/12/12 13:18:17;;;;;;;4.33;1.47;;;0.40;95.40;;;;;;6308266;22;20019;-86
2022/12/12 13:21:05;;;;;;;5.80;1.83;;;0.40;95.40;;;;;;6282851;22;20026;-89
2022/12/12 13:23:57;;;;;;;4.37;1.20;;;0.40;95.40;;;;;;6309260;22;20038;-87
2022/12/12 13:26:50;;;;;;;3.17;1.20;;;0.40;95.40;;;;;;6307697;22;20023;-89
2022/12/12 13:29:31;;;;;;;4.67;1.80;;;0.40;95.40;;;;;;6307705;22;20090;-90
2022/12/12 13:32:16;;;;;;;4.32;1.65;;;0.40;95.40;;;;;;6307909;22;20019;-87
2022/12/12 13:34:53;;;;;;;5.07;1.90;;;0.40;95.40;;;;;;6307973;22;20027;-87
2022/12/12 13:38:05;;;;;;;4.23;1.70;;;0.40;95.40;;;;;;6302950;22;20101;-88
2022/12/12 13:40:43;;;;;;;4.87;1.40;;;0.40;95.40;;;;;;6258693;22;20042;-87
2022/12/12 13:43:36;;;;;;;6.17;1.70;;;0.40;95.40;;;;;;6308332;22;20011;-90
2022/12/12 13:46:40;;;;;;;4.60;1.70;;;0.40;95.40;;;;;;6285140;22;20011;-92
2022/12/12 13:49:34;;;;;;;4.63;2.33;;;0.40;95.40;;;;;;6283075;22;20023;-88
2022/12/12 13:52:36;;;;;;;;;;;0.40;95.40;;;;;;6282579;22;20029;-88
2022/12/12 13:55:14;;;;;;;4.00;1.20;;;0.30;95.40;;;;;;6166087;23;19916;-88
2022/12/12 13:58:09;;;;;;;4.20;1.20;;;0.30;95.50;;;;;;6219556;22;20074;-84
2022/12/12 14:00:44;;;;;;;4.37;1.37;;;0.20;95.40;;;;;;6307438;22;20046;-90
2022/12/12 14:03:15;;;;;;;3.23;1.10;;;0.20;95.40;;;;;;6308586;22;20098;-87
2022/12/12 14:06:17;;;;;;;4.77;2.10;;;0.20;95.50;;;;;;6285896;22;20015;-86
2022/12/12 14:09:04;;;;;;;4.80;1.63;;;0.20;95.40;;;;;;6286858;22;20489;-87
2022/12/12 14:12:02;;;;;;;;;;;;;;;;;;;;;
2022/12/12 14:19:38;;;;;;;5.00;1.97;;;0.10;95.50;;;;;;6283459;22;20007;-88
2022/12/12 14:22:50;;;;;;;4.53;1.43;;;0.10;95.40;;;;;;6219717;23;20026;-91
2022/12/12 14:25:34;;;;;;;5.97;1.83;;;0.10;95.40;;;;;;6220084;23;20028;-88